Time;durP1;ratioP1;P1;durP2;ratioP2;P2;SDS_P1;SDS_P2;PMS_P1;PMS_P2;Temp;Humidity;BMP_temperature;BMP_pressure;BME280_temperature;BME280_humidity;BME280_pressure;Samples;Min_cycle;Max_cycle;Signal;HPM_P1;HPM_P2
2023/11/30 00:02:17;;;;;;;17.23;12.13;;;0.40;99.90;;;;;;5104967;27;20032;-80
2023/11/30 00:04:43;;;;;;;18.93;13.00;;;0.40;99.90;;;;;;5088812;27;20462;-80
2023/11/30 00:07:12;;;;;;;17.27;12.23;;;0.40;99.90;;;;;;5087921;27;20489;-79
2023/11/30 00:09:38;;;;;;;22.73;14.70;;;0.40;99.90;;;;;;5085791;28;20035;-80
2023/11/30 00:12:05;;;;;;;19.13;13.17;;;0.40;99.90;;;;;;5085765;27;20478;-80
2023/11/30 00:14:31;;;;;;;16.70;11.87;;;0.40;99.90;;;;;;5078495;27;20032;-83
2023/11/30 00:16:58;;;;;;;24.33;15.70;;;0.40;99.90;;;;;;5062989;27;20036;-76
2023/11/30 00:19:24;;;;;;;23.13;15.63;;;0.40;99.90;;;;;;5108801;27;20042;-79
2023/11/30 00:21:50;;;;;;;21.83;14.57;;;0.40;99.90;;;;;;5072399;27;20024;-81
2023/11/30 00:24:17;;;;;;;20.53;14.33;;;0.40;99.90;;;;;;5055439;27;20027;-81
2023/11/30 00:26:44;;;;;;;18.10;12.43;;;0.40;99.90;;;;;;5067185;28;20479;-82
2023/11/30 00:29:10;;;;;;;19.63;13.27;;;0.30;99.90;;;;;;5087349;27;20050;-83
2023/11/30 00:31:37;;;;;;;19.13;12.90;;;0.30;99.90;;;;;;5095630;27;20041;-77
2023/11/30 00:34:03;;;;;;;18.70;13.10;;;0.30;99.90;;;;;;5082662;27;20489;-81
2023/11/30 00:36:29;;;;;;;20.87;13.27;;;0.30;99.90;;;;;;5073415;27;20406;-80
2023/11/30 00:38:55;;;;;;;20.07;13.17;;;0.20;99.90;;;;;;5072138;27;20042;-80
2023/11/30 00:41:22;;;;;;;25.97;16.43;;;0.30;99.90;;;;;;5054389;27;20047;-79
2023/11/30 00:43:48;;;;;;;24.63;16.37;;;0.20;99.90;;;;;;5072446;27;20047;-83
2023/11/30 00:46:16;;;;;;;20.27;12.70;;;0.20;99.90;;;;;;5086001;27;20529;-83
2023/11/30 00:48:45;;;;;;;21.90;14.13;;;0.20;99.90;;;;;;5051988;28;20071;-84
2023/11/30 00:51:11;;;;;;;20.10;13.07;;;0.20;99.90;;;;;;5053164;27;20038;-81
2023/11/30 00:53:39;;;;;;;19.93;12.83;;;0.20;99.90;;;;;;5087252;28;20042;-81
2023/11/30 00:56:06;;;;;;;18.77;13.00;;;0.20;99.90;;;;;;5085770;28;20043;-81
2023/11/30 00:58:32;;;;;;;22.63;14.43;;;0.20;99.90;;;;;;5099135;27;20378;-82
2023/11/30 01:00:59;;;;;;;20.47;13.30;;;0.20;99.90;;;;;;5056230;27;20027;-78
2023/11/30 01:03:25;;;;;;;17.37;12.57;;;0.20;99.90;;;;;;5119387;27;20035;-78
2023/11/30 01:05:51;;;;;;;18.37;13.03;;;0.10;99.90;;;;;;5076079;27;20035;-81
2023/11/30 01:08:17;;;;;;;17.97;11.30;;;0.10;99.90;;;;;;5073422;28;20485;-84
2023/11/30 01:10:44;;;;;;;19.30;12.10;;;0.10;99.90;;;;;;5074315;27;20375;-80
2023/11/30 01:13:10;;;;;;;20.30;12.93;;;0.20;99.90;;;;;;5068518;28;20050;-83
2023/11/30 01:15:36;;;;;;;22.73;14.77;;;0.20;99.90;;;;;;5103956;27;20066;-85
2023/11/30 01:18:05;;;;;;;18.10;13.20;;;0.20;99.90;;;;;;5074358;28;21069;-78
2023/11/30 01:20:32;;;;;;;20.53;13.33;;;0.20;99.90;;;;;;5076722;27;20051;-83
2023/11/30 01:22:59;;;;;;;19.50;13.07;;;0.20;99.90;;;;;;5089060;27;20036;-81
2023/11/30 01:25:25;;;;;;;20.87;14.67;;;0.20;99.90;;;;;;5117073;27;20047;-82
2023/11/30 01:27:52;;;;;;;20.37;14.37;;;0.20;99.90;;;;;;5121877;27;20042;-83
2023/11/30 01:30:20;;;;;;;26.70;15.63;;;0.20;99.90;;;;;;5118140;27;20043;-79
2023/11/30 01:32:47;;;;;;;24.27;15.43;;;0.20;99.90;;;;;;5100541;28;20028;-76
2023/11/30 01:35:16;;;;;;;20.93;14.57;;;0.20;99.90;;;;;;5088509;28;20470;-82
2023/11/30 01:37:42;;;;;;;24.37;16.23;;;0.20;99.90;;;;;;5052277;28;20038;-80
2023/11/30 01:40:09;;;;;;;21.30;14.50;;;0.10;99.90;;;;;;5083075;28;20050;-83
2023/11/30 01:42:36;;;;;;;21.77;14.43;;;0.10;99.90;;;;;;5101100;28;20032;-79
2023/11/30 01:45:03;;;;;;;24.07;15.23;;;0.10;99.90;;;;;;5084421;28;20082;-80
2023/11/30 01:47:33;;;;;;;23.50;15.60;;;0.10;99.90;;;;;;5056839;28;20411;-84
2023/11/30 01:50:02;;;;;;;22.80;15.00;;;0.10;99.90;;;;;;5056991;28;20039;-82
2023/11/30 01:52:31;;;;;;;24.33;15.87;;;0.20;99.90;;;;;;5086219;28;20036;-84
2023/11/30 01:55:01;;;;;;;30.83;18.13;;;0.20;99.90;;;;;;5098425;28;20529;-84
2023/11/30 01:57:30;;;;;;;26.20;17.63;;;0.20;99.90;;;;;;5069892;28;20417;-81
2023/11/30 01:59:56;;;;;;;28.80;18.87;;;0.20;99.90;;;;;;5096400;28;20036;-77
2023/11/30 02:02:23;;;;;;;32.63;17.67;;;0.20;99.90;;;;;;5052940;28;20042;-80
2023/11/30 02:04:52;;;;;;;30.47;16.97;;;0.30;99.90;;;;;;5069689;28;20398;-81
2023/11/30 02:07:20;;;;;;;35.90;18.53;;;0.30;99.90;;;;;;5080839;28;20031;-74
2023/11/30 02:09:46;;;;;;;40.60;19.17;;;0.30;99.90;;;;;;5058451;28;20382;-85
2023/11/30 02:12:13;;;;;;;58.17;19.17;;;0.30;99.90;;;;;;5068566;28;20261;-82
2023/11/30 02:14:39;;;;;;;34.07;18.63;;;0.30;99.90;;;;;;5054747;28;20054;-78
2023/11/30 02:17:05;;;;;;;34.87;17.37;;;0.40;99.90;;;;;;5074624;28;20040;-82
2023/11/30 02:19:32;;;;;;;42.40;17.17;;;0.40;99.90;;;;;;5068565;28;20942;-84
2023/11/30 02:21:58;;;;;;;39.27;16.83;;;0.50;99.90;;;;;;5082445;28;20036;-84
2023/11/30 02:24:24;;;;;;;75.03;22.10;;;0.50;99.90;;;;;;5075795;27;20039;-83
2023/11/30 02:26:51;;;;;;;51.37;19.73;;;0.50;99.90;;;;;;5072008;27;20036;-81
2023/11/30 02:29:17;;;;;;;36.07;16.77;;;0.50;99.90;;;;;;5103739;27;20609;-77
2023/11/30 02:31:43;;;;;;;39.30;18.80;;;0.50;99.90;;;;;;5081753;27;20046;-81
2023/11/30 02:34:09;;;;;;;69.00;23.53;;;0.50;99.90;;;;;;5073504;27;20063;-81
2023/11/30 02:36:36;;;;;;;50.43;21.20;;;0.50;99.90;;;;;;5096195;27;20047;-84
2023/11/30 02:39:03;;;;;;;32.20;18.83;;;0.50;99.90;;;;;;5067664;28;20040;-79
2023/11/30 02:41:30;;;;;;;62.37;19.47;;;0.50;99.90;;;;;;5081374;28;20028;-80
2023/11/30 02:43:57;;;;;;;37.30;18.30;;;0.50;99.90;;;;;;5069188;28;20491;-82
2023/11/30 02:46:23;;;;;;;38.97;19.37;;;0.50;99.90;;;;;;5077923;28;20406;-85
2023/11/30 02:48:50;;;;;;;35.53;20.90;;;0.60;99.90;;;;;;5082667;28;20062;-80
2023/11/30 02:51:16;;;;;;;43.70;22.27;;;0.60;99.90;;;;;;5101970;27;20042;-80
2023/11/30 02:53:42;;;;;;;41.70;19.47;;;0.60;99.90;;;;;;5070950;27;20043;-81
2023/11/30 02:56:09;;;;;;;40.83;20.50;;;0.60;99.90;;;;;;5072917;27;20031;-84
2023/11/30 02:58:35;;;;;;;41.90;20.90;;;0.60;99.90;;;;;;5081512;27;20032;-85
2023/11/30 03:01:05;;;;;;;47.13;19.90;;;0.70;99.90;;;;;;5078503;27;20031;-77
2023/11/30 03:03:31;;;;;;;42.13;19.70;;;0.70;99.90;;;;;;5099930;27;20042;-82
2023/11/30 03:05:57;;;;;;;42.57;21.57;;;0.70;99.90;;;;;;5081120;27;20028;-84
2023/11/30 03:08:24;;;;;;;49.10;21.07;;;0.70;99.90;;;;;;5067672;27;20038;-83
2023/11/30 03:10:51;;;;;;;39.90;18.77;;;0.70;99.90;;;;;;5079441;28;20035;-79
2023/11/30 03:13:19;;;;;;;34.60;18.93;;;0.70;99.90;;;;;;5071028;27;20494;-81
2023/11/30 03:15:46;;;;;;;54.00;23.23;;;0.70;99.90;;;;;;5072901;27;20038;-84
2023/11/30 03:18:13;;;;;;;37.47;21.50;;;0.70;99.90;;;;;;5098430;27;20038;-83
2023/11/30 03:20:39;;;;;;;39.30;20.70;;;0.80;99.90;;;;;;5070672;27;20040;-80
2023/11/30 03:23:06;;;;;;;49.97;22.10;;;0.80;99.90;;;;;;5100796;27;20036;-83
2023/11/30 03:25:35;;;;;;;46.07;22.07;;;0.80;99.90;;;;;;5086172;27;20071;-78
2023/11/30 03:28:02;;;;;;;35.33;20.43;;;0.80;99.90;;;;;;5088475;27;20505;-78
2023/11/30 03:30:28;;;;;;;41.37;20.90;;;0.80;99.90;;;;;;5082355;28;20036;-80
2023/11/30 03:32:56;;;;;;;47.17;25.50;;;0.80;99.90;;;;;;5086982;27;20598;-82
2023/11/30 03:35:22;;;;;;;44.27;22.70;;;0.80;99.90;;;;;;5057831;27;20028;-79
2023/11/30 03:37:50;;;;;;;36.77;20.50;;;0.80;99.90;;;;;;5084875;28;20039;-78
2023/11/30 03:40:16;;;;;;;40.67;21.90;;;0.80;99.90;;;;;;5066919;27;20039;-80
2023/11/30 03:42:45;;;;;;;34.67;18.77;;;0.80;99.90;;;;;;5067980;27;20058;-80
2023/11/30 03:45:11;;;;;;;36.27;20.60;;;0.80;99.90;;;;;;5104692;27;20031;-78
2023/11/30 03:47:38;;;;;;;32.73;19.13;;;0.70;99.90;;;;;;5072545;27;20040;-81
2023/11/30 03:50:04;;;;;;;40.63;21.27;;;0.70;99.90;;;;;;5087990;27;20028;-77
2023/11/30 03:52:31;;;;;;;38.80;21.63;;;0.70;99.90;;;;;;5083176;28;20028;-79
2023/11/30 03:54:57;;;;;;;41.93;23.23;;;0.70;99.90;;;;;;5073021;27;20054;-79
2023/11/30 03:57:23;;;;;;;37.73;21.37;;;0.70;99.90;;;;;;5081810;27;20047;-80
2023/11/30 03:59:51;;;;;;;38.57;20.87;;;0.70;99.90;;;;;;5084791;27;20036;-76
2023/11/30 04:02:17;;;;;;;43.53;23.83;;;0.70;99.90;;;;;;5066399;27;20039;-79
2023/11/30 04:04:43;;;;;;;33.70;19.67;;;0.70;99.90;;;;;;5067607;27;20051;-81
2023/11/30 04:07:10;;;;;;;36.73;21.27;;;0.70;99.90;;;;;;5074203;27;20039;-82
2023/11/30 04:09:39;;;;;;;37.77;21.73;;;0.70;99.90;;;;;;5054483;28;20048;-81
2023/11/30 04:12:06;;;;;;;41.00;23.37;;;0.70;99.90;;;;;;5078085;28;20035;-82
2023/11/30 04:14:32;;;;;;;40.87;22.63;;;0.70;99.90;;;;;;5079358;28;20031;-80
2023/11/30 04:16:58;;;;;;;43.93;22.27;;;0.70;99.90;;;;;;5066578;27;20043;-78
2023/11/30 04:19:25;;;;;;;37.43;21.87;;;0.70;99.90;;;;;;5115748;27;20040;-77
2023/11/30 04:21:52;;;;;;;33.80;19.97;;;0.60;99.90;;;;;;5083785;28;20035;-79
2023/11/30 04:24:19;;;;;;;36.17;19.37;;;0.60;99.90;;;;;;5076389;28;20039;-82
2023/11/30 04:26:45;;;;;;;33.77;19.00;;;0.60;99.90;;;;;;5102524;27;20040;-79
2023/11/30 04:29:12;;;;;;;33.90;20.60;;;0.70;99.90;;;;;;5074343;28;20383;-80
2023/11/30 04:31:38;;;;;;;35.73;20.53;;;0.70;99.90;;;;;;5100889;27;20060;-80
2023/11/30 04:34:04;;;;;;;37.17;20.53;;;0.70;99.90;;;;;;5072976;27;20039;-82
2023/11/30 04:36:31;;;;;;;33.43;19.03;;;0.70;99.90;;;;;;5086021;27;20054;-79
2023/11/30 04:38:58;;;;;;;36.23;20.40;;;0.70;99.90;;;;;;5068541;28;20055;-80
2023/11/30 04:41:24;;;;;;;37.17;20.80;;;0.70;99.90;;;;;;5080000;27;20039;-80
2023/11/30 04:43:51;;;;;;;38.47;21.50;;;0.70;99.90;;;;;;5070863;27;20050;-76
2023/11/30 04:46:17;;;;;;;35.63;20.77;;;0.70;99.90;;;;;;5079820;28;20027;-79
2023/11/30 04:48:43;;;;;;;33.63;20.53;;;0.70;99.90;;;;;;5094764;27;20036;-79
2023/11/30 04:51:10;;;;;;;34.63;21.93;;;0.70;99.90;;;;;;5062901;28;20449;-81
2023/11/30 04:53:36;;;;;;;36.80;20.63;;;0.70;99.90;;;;;;5074852;27;21831;-81
2023/11/30 04:56:04;;;;;;;34.13;19.23;;;0.60;99.90;;;;;;5053109;28;20032;-82
2023/11/30 04:58:31;;;;;;;31.83;19.33;;;0.60;99.90;;;;;;5053996;28;20054;-82
2023/11/30 05:00:57;;;;;;;42.03;24.33;;;0.60;99.90;;;;;;5065646;28;20042;-81
2023/11/30 05:03:23;;;;;;;37.73;23.73;;;0.60;99.90;;;;;;5079886;28;20031;-79
2023/11/30 05:05:49;;;;;;;39.03;22.53;;;0.70;99.90;;;;;;5069162;28;20492;-82
2023/11/30 05:08:16;;;;;;;40.37;23.30;;;0.70;99.90;;;;;;5062719;28;20059;-80
2023/11/30 05:10:42;;;;;;;37.30;21.67;;;0.60;99.90;;;;;;5067698;28;20035;-81
2023/11/30 05:13:09;;;;;;;43.37;25.10;;;0.60;99.90;;;;;;5074654;28;20034;-79
2023/11/30 05:15:38;;;;;;;38.63;22.17;;;0.60;99.90;;;;;;5078030;28;20249;-79
2023/11/30 05:18:04;;;;;;;33.43;20.33;;;0.60;99.90;;;;;;5094485;28;20028;-80
2023/11/30 05:20:30;;;;;;;40.47;23.60;;;0.60;99.90;;;;;;5090089;28;20601;-84
2023/11/30 05:22:57;;;;;;;36.97;21.73;;;0.70;99.90;;;;;;5075652;28;20032;-82
2023/11/30 05:25:24;;;;;;;40.80;23.90;;;0.70;99.90;;;;;;5093980;28;20036;-80
2023/11/30 05:27:50;;;;;;;41.33;23.37;;;0.70;99.90;;;;;;5075864;27;20031;-81
2023/11/30 05:30:17;;;;;;;44.73;23.47;;;0.70;99.90;;;;;;5075582;28;20043;-80
2023/11/30 05:32:43;;;;;;;35.53;22.13;;;0.70;99.90;;;;;;5065069;28;20401;-80
2023/11/30 05:35:09;;;;;;;43.30;22.70;;;0.70;99.90;;;;;;5097320;27;20035;-81
2023/11/30 05:37:36;;;;;;;36.67;20.37;;;0.70;99.90;;;;;;5083447;28;20032;-80
2023/11/30 05:40:04;;;;;;;45.67;23.80;;;0.70;99.90;;;;;;5056819;28;20040;-80
2023/11/30 05:42:30;;;;;;;41.03;23.53;;;0.70;99.90;;;;;;5078368;28;20130;-81
2023/11/30 05:44:57;;;;;;;41.80;23.97;;;0.70;99.90;;;;;;5064562;28;20565;-82
2023/11/30 05:47:23;;;;;;;39.60;22.53;;;0.80;99.90;;;;;;5096819;28;20051;-81
2023/11/30 05:49:50;;;;;;;34.30;19.93;;;0.80;99.90;;;;;;5092573;28;20044;-81
2023/11/30 05:52:17;;;;;;;44.87;23.17;;;0.80;99.90;;;;;;5092582;28;20638;-82
2023/11/30 05:54:43;;;;;;;36.47;22.10;;;0.80;99.90;;;;;;5081378;28;20036;-79
2023/11/30 05:57:09;;;;;;;49.67;28.07;;;0.80;99.90;;;;;;5062416;28;20036;-82
2023/11/30 05:59:36;;;;;;;52.10;25.80;;;0.80;99.90;;;;;;5088303;27;20035;-82
2023/11/30 06:02:03;;;;;;;42.47;23.83;;;0.80;99.90;;;;;;5073628;27;20031;-82
2023/11/30 06:04:30;;;;;;;41.87;23.80;;;0.80;99.90;;;;;;5073343;27;20487;-81
2023/11/30 06:06:56;;;;;;;45.07;23.37;;;0.80;99.90;;;;;;5081533;28;20168;-80
2023/11/30 06:09:22;;;;;;;51.77;27.37;;;0.90;99.90;;;;;;5122703;27;20039;-77
2023/11/30 06:11:51;;;;;;;42.97;24.37;;;0.90;99.90;;;;;;5082002;28;20043;-81
2023/11/30 06:14:18;;;;;;;46.53;26.00;;;0.90;99.90;;;;;;5098998;27;20024;-80
2023/11/30 06:16:44;;;;;;;45.27;23.43;;;0.90;99.90;;;;;;5104175;27;20054;-82
2023/11/30 06:19:11;;;;;;;41.03;24.40;;;0.90;99.90;;;;;;5105396;27;20032;-82
2023/11/30 06:21:38;;;;;;;43.90;24.20;;;1.00;99.90;;;;;;5076497;28;20040;-79
2023/11/30 06:24:06;;;;;;;40.50;22.23;;;1.00;99.90;;;;;;5081257;27;20402;-77
2023/11/30 06:26:32;;;;;;;47.80;25.87;;;1.00;99.90;;;;;;5097103;27;20042;-75
2023/11/30 06:28:59;;;;;;;44.40;24.30;;;1.00;99.90;;;;;;5078373;27;20059;-78
2023/11/30 06:31:25;;;;;;;47.30;26.83;;;1.00;99.90;;;;;;5065667;27;20400;-79
2023/11/30 06:33:51;;;;;;;44.87;26.40;;;1.00;99.90;;;;;;5081152;27;20525;-77
2023/11/30 06:36:17;;;;;;;44.20;25.60;;;1.00;99.90;;;;;;5087041;28;20028;-78
2023/11/30 06:38:44;;;;;;;42.50;25.50;;;1.10;99.90;;;;;;5096987;27;20624;-78
2023/11/30 06:41:11;;;;;;;46.37;26.27;;;1.10;99.90;;;;;;5085158;28;20043;-81
2023/11/30 06:43:39;;;;;;;47.10;26.80;;;1.10;99.90;;;;;;5070634;27;20035;-80
2023/11/30 06:46:06;;;;;;;54.03;28.13;;;1.10;99.90;;;;;;5088947;27;20383;-81
2023/11/30 06:48:32;;;;;;;43.30;24.67;;;1.10;99.90;;;;;;5099738;27;20462;-80
2023/11/30 06:50:58;;;;;;;45.40;24.80;;;1.10;99.90;;;;;;5087719;27;20031;-78
2023/11/30 06:53:25;;;;;;;48.43;26.77;;;1.10;99.90;;;;;;5067307;28;20032;-81
2023/11/30 06:55:51;;;;;;;45.87;25.30;;;1.10;99.90;;;;;;5078749;28;20517;-78
2023/11/30 06:58:17;;;;;;;46.33;23.70;;;1.10;99.90;;;;;;5096928;27;20424;-79
2023/11/30 07:00:44;;;;;;;45.93;26.53;;;1.10;99.90;;;;;;5079881;27;20434;-80
2023/11/30 07:03:10;;;;;;;48.77;28.17;;;1.10;99.90;;;;;;5077852;28;20354;-80
2023/11/30 07:05:37;;;;;;;50.90;28.87;;;1.10;99.90;;;;;;5098800;27;20043;-81
2023/11/30 07:08:03;;;;;;;47.87;26.27;;;1.10;99.90;;;;;;5094817;27;20031;-78
2023/11/30 07:10:29;;;;;;;55.10;31.00;;;1.10;99.90;;;;;;5088612;27;20582;-80
2023/11/30 07:12:56;;;;;;;56.40;33.00;;;1.10;99.90;;;;;;5064985;28;20055;-77
2023/11/30 07:15:22;;;;;;;53.65;29.50;;;1.10;99.90;;;;;;5080232;27;20039;-80
2023/11/30 07:17:48;;;;;;;55.10;29.27;;;1.10;99.90;;;;;;5080525;27;20035;-79
2023/11/30 07:20:15;;;;;;;54.63;29.80;;;1.10;99.90;;;;;;5079828;28;20035;-80
2023/11/30 07:22:43;;;;;;;47.33;27.87;;;1.10;99.90;;;;;;5085050;27;20463;-80
2023/11/30 07:25:09;;;;;;;47.57;27.93;;;1.10;99.90;;;;;;5087114;27;20020;-78
2023/11/30 07:27:36;;;;;;;55.80;31.60;;;1.10;99.90;;;;;;5071081;27;20035;-77
2023/11/30 07:30:03;;;;;;;57.27;32.30;;;1.20;99.90;;;;;;5085368;27;20335;-80
2023/11/30 07:32:30;;;;;;;68.17;36.47;;;1.20;99.90;;;;;;5073591;27;20052;-79
2023/11/30 07:34:57;;;;;;;56.73;33.93;;;1.20;99.90;;;;;;5113119;27;20027;-79
2023/11/30 07:37:23;;;;;;;50.13;27.17;;;1.20;99.90;;;;;;5116785;27;20490;-77
2023/11/30 07:39:49;;;;;;;48.93;27.27;;;1.20;99.90;;;;;;5082368;27;20031;-79
2023/11/30 07:42:16;;;;;;;43.50;24.53;;;1.20;99.90;;;;;;5086524;27;20044;-79
2023/11/30 07:44:43;;;;;;;39.17;24.03;;;1.20;99.90;;;;;;5055704;27;20043;-78
2023/11/30 07:47:10;;;;;;;46.23;25.37;;;1.20;99.90;;;;;;5100560;27;20039;-75
2023/11/30 07:49:37;;;;;;;47.73;25.30;;;1.20;99.90;;;;;;5072469;28;20035;-78
2023/11/30 07:52:04;;;;;;;48.87;26.60;;;1.20;99.90;;;;;;5080557;27;20401;-79
2023/11/30 07:54:30;;;;;;;44.63;24.57;;;1.30;99.90;;;;;;5087106;27;20028;-82
2023/11/30 07:56:56;;;;;;;47.30;26.70;;;1.30;99.90;;;;;;5093856;27;20039;-78
2023/11/30 07:59:22;;;;;;;49.30;26.60;;;1.30;99.90;;;;;;5103710;27;20402;-79
2023/11/30 08:01:49;;;;;;;45.83;26.07;;;1.20;99.90;;;;;;5080865;28;20410;-78
2023/11/30 08:04:15;;;;;;;46.27;25.97;;;1.30;99.90;;;;;;5084642;27;20039;-81
2023/11/30 08:06:42;;;;;;;43.30;23.83;;;1.30;99.90;;;;;;5098314;27;20020;-78
2023/11/30 08:09:08;;;;;;;51.07;26.70;;;1.30;99.90;;;;;;5086051;28;20036;-79
2023/11/30 08:11:37;;;;;;;52.03;27.83;;;1.30;99.90;;;;;;5081682;27;20038;-78
2023/11/30 08:14:03;;;;;;;60.10;32.03;;;1.40;99.90;;;;;;5050739;27;20039;-77
2023/11/30 08:16:30;;;;;;;63.03;30.83;;;1.40;99.90;;;;;;5088297;27;20028;-78
2023/11/30 08:18:58;;;;;;;53.83;31.23;;;1.40;99.90;;;;;;5100165;27;20024;-80
2023/11/30 08:21:24;;;;;;;60.33;31.80;;;1.30;99.90;;;;;;5095560;27;20047;-79
2023/11/30 08:23:50;;;;;;;53.10;29.60;;;1.30;99.90;;;;;;5063469;28;20043;-80
2023/11/30 08:26:17;;;;;;;52.13;29.77;;;1.40;99.90;;;;;;5066249;28;20032;-76
2023/11/30 08:28:44;;;;;;;54.60;30.83;;;1.40;99.90;;;;;;5097067;27;20058;-79
2023/11/30 08:31:11;;;;;;;54.57;32.10;;;1.40;99.90;;;;;;5093689;27;20035;-76
2023/11/30 08:33:37;;;;;;;53.43;28.90;;;1.40;99.90;;;;;;5084311;27;20036;-78
2023/11/30 08:36:04;;;;;;;57.83;29.10;;;1.50;99.90;;;;;;5078016;27;20032;-78
2023/11/30 08:38:37;;;;;;;54.27;28.07;;;1.50;99.90;;;;;;5063793;27;20036;-78
2023/11/30 08:41:04;;;;;;;60.07;32.00;;;1.50;99.90;;;;;;5081958;27;20032;-78
2023/11/30 08:43:30;;;;;;;58.00;30.47;;;1.60;99.90;;;;;;5073081;27;20023;-78
2023/11/30 08:45:56;;;;;;;52.63;27.63;;;1.60;99.90;;;;;;5051446;27;20039;-76
2023/11/30 08:48:23;;;;;;;55.90;29.90;;;1.60;99.90;;;;;;5080239;27;20477;-76
2023/11/30 08:50:49;;;;;;;58.03;29.90;;;1.60;99.90;;;;;;5084059;27;20043;-78
2023/11/30 08:53:16;;;;;;;61.73;30.33;;;1.70;99.90;;;;;;5096691;27;20030;-78
2023/11/30 08:55:46;;;;;;;63.30;32.57;;;1.60;99.90;;;;;;5100466;27;20039;-78
2023/11/30 08:58:13;;;;;;;51.85;29.23;;;1.70;99.90;;;;;;5084088;27;20039;-76
2023/11/30 09:00:39;;;;;;;55.63;30.10;;;1.60;99.90;;;;;;5066178;27;20039;-78
2023/11/30 09:03:06;;;;;;;51.57;28.40;;;1.70;99.90;;;;;;5080728;27;20038;-77
2023/11/30 09:05:33;;;;;;;54.57;31.30;;;1.70;99.90;;;;;;5071593;28;20039;-75
2023/11/30 09:07:59;;;;;;;51.53;29.20;;;1.70;99.90;;;;;;5097666;27;20441;-78
2023/11/30 09:10:26;;;;;;;60.00;32.00;;;1.70;99.90;;;;;;5082764;28;20035;-75
2023/11/30 09:12:52;;;;;;;61.07;33.87;;;1.70;99.90;;;;;;5064843;27;20392;-77
2023/11/30 09:15:19;;;;;;;54.03;29.52;;;1.80;99.90;;;;;;5071150;28;20409;-75
2023/11/30 09:17:46;;;;;;;50.67;26.30;;;1.80;99.90;;;;;;5081853;27;20043;-77
2023/11/30 09:20:12;;;;;;;47.47;25.47;;;1.90;99.90;;;;;;5098450;27;20062;-75
2023/11/30 09:22:39;;;;;;;44.00;26.98;;;1.90;99.90;;;;;;5066140;28;20038;-75
2023/11/30 09:25:06;;;;;;;46.90;25.40;;;1.90;99.90;;;;;;5076618;28;20032;-76
2023/11/30 09:27:32;;;;;;;50.10;26.65;;;2.00;99.90;;;;;;5097560;27;20066;-75
2023/11/30 09:29:59;;;;;;;47.55;26.23;;;2.00;99.90;;;;;;5084769;28;20040;-78
2023/11/30 09:32:26;;;;;;;47.42;26.50;;;2.00;99.90;;;;;;5097580;28;20053;-76
2023/11/30 09:34:53;;;;;;;46.53;26.73;;;2.10;99.90;;;;;;5083382;27;20027;-77
2023/11/30 09:37:19;;;;;;;50.40;26.90;;;2.10;99.90;;;;;;5096169;28;20497;-74
2023/11/30 09:39:46;;;;;;;47.03;25.50;;;2.10;99.90;;;;;;5076821;28;20040;-77
2023/11/30 09:42:16;;;;;;;50.60;27.77;;;2.10;99.90;;;;;;5071610;28;20206;-76
2023/11/30 09:44:43;;;;;;;49.20;28.00;;;2.10;99.90;;;;;;5111484;27;20478;-77
2023/11/30 09:47:10;;;;;;;49.78;27.50;;;2.10;99.90;;;;;;5085240;28;20039;-74
2023/11/30 09:49:40;;;;;;;50.63;28.80;;;2.10;99.90;;;;;;5101608;28;20478;-78
2023/11/30 09:52:06;;;;;;;62.78;33.45;;;2.10;99.90;;;;;;5072730;28;20196;-77
2023/11/30 09:54:34;;;;;;;49.83;27.33;;;2.20;99.90;;;;;;5066606;28;20036;-77
2023/11/30 09:57:00;;;;;;;56.13;30.42;;;2.20;99.90;;;;;;5099231;28;20031;-77
2023/11/30 09:59:27;;;;;;;55.93;30.20;;;2.20;99.90;;;;;;5068059;28;20039;-78
2023/11/30 10:01:58;;;;;;;56.60;31.33;;;2.30;99.90;;;;;;5082784;28;20028;-77
2023/11/30 10:04:28;;;;;;;59.70;31.40;;;2.30;99.90;;;;;;5105094;28;20035;-77
2023/11/30 10:06:56;;;;;;;57.10;30.05;;;2.30;99.90;;;;;;5051443;28;20047;-78
2023/11/30 10:09:23;;;;;;;56.38;30.73;;;2.30;99.90;;;;;;5080302;28;20088;-77
2023/11/30 10:11:49;;;;;;;67.10;33.90;;;2.30;99.90;;;;;;5079954;28;20039;-79
2023/11/30 10:14:17;;;;;;;59.97;32.33;;;2.30;99.90;;;;;;5113440;27;20528;-76
2023/11/30 10:16:44;;;;;;;60.70;31.58;;;2.40;99.90;;;;;;5072514;28;20035;-74
2023/11/30 10:19:10;;;;;;;65.60;32.85;;;2.40;99.90;;;;;;5100024;28;20035;-77
2023/11/30 10:21:41;;;;;;;61.05;31.60;;;2.40;99.90;;;;;;5065743;28;20028;-80
2023/11/30 10:24:08;;;;;;;74.43;36.05;;;2.40;99.90;;;;;;5065481;28;20035;-78
2023/11/30 10:26:36;;;;;;;61.55;32.22;;;2.50;99.90;;;;;;5083498;28;20036;-78
2023/11/30 10:29:06;;;;;;;64.13;32.28;;;2.40;99.90;;;;;;5063116;28;20506;-77
2023/11/30 10:31:35;;;;;;;65.97;33.40;;;2.50;99.90;;;;;;5064689;28;20032;-77
2023/11/30 10:34:13;;;;;;;64.28;31.10;;;2.50;99.90;;;;;;5065692;28;20036;-77
2023/11/30 10:36:42;;;;;;;72.88;35.70;;;2.50;99.90;;;;;;5052809;28;20043;-74
2023/11/30 10:39:22;;;;;;;73.25;33.83;;;2.60;99.90;;;;;;5099153;28;20044;-77
2023/11/30 10:41:54;;;;;;;81.60;39.67;;;2.60;99.90;;;;;;5103871;28;20043;-78
2023/11/30 10:44:29;;;;;;;74.30;37.50;;;2.70;99.90;;;;;;5091561;27;20508;-77
2023/11/30 10:47:00;;;;;;;80.70;39.67;;;2.80;99.90;;;;;;5072383;27;20036;-77
2023/11/30 10:49:29;;;;;;;83.07;38.05;;;2.90;99.90;;;;;;5083163;27;20035;-77
2023/11/30 10:51:58;;;;;;;76.63;38.47;;;2.90;99.90;;;;;;5111162;27;20031;-77
2023/11/30 10:54:42;;;;;;;75.45;38.53;;;2.90;99.90;;;;;;5051523;28;20067;-77
2023/11/30 10:57:08;;;;;;;71.95;35.85;;;3.00;99.90;;;;;;5072899;27;20512;-78
2023/11/30 10:59:35;;;;;;;76.60;38.10;;;3.00;99.90;;;;;;5072486;27;20043;-78
2023/11/30 11:02:05;;;;;;;69.95;33.70;;;3.00;99.90;;;;;;5084618;28;20244;-77
2023/11/30 11:04:32;;;;;;;74.03;39.17;;;3.00;99.90;;;;;;5069995;27;20058;-78
2023/11/30 11:07:03;;;;;;;72.18;37.58;;;2.90;99.90;;;;;;5118330;27;20031;-80
2023/11/30 11:09:43;;;;;;;68.57;34.42;;;2.90;99.90;;;;;;5083544;27;20043;-78
2023/11/30 11:12:26;;;;;;;75.38;35.85;;;2.80;99.90;;;;;;5052549;28;20035;-75
2023/11/30 11:15:08;;;;;;;84.80;41.40;;;2.80;99.90;;;;;;5071251;27;20044;-78
2023/11/30 11:17:48;;;;;;;77.13;38.17;;;2.90;99.90;;;;;;5097617;27;20418;-76
2023/11/30 11:20:19;;;;;;;88.07;42.85;;;3.00;99.90;;;;;;5079519;28;20024;-73
2023/11/30 11:22:46;;;;;;;88.78;42.67;;;3.10;99.90;;;;;;5092097;27;20035;-74
2023/11/30 11:25:15;;;;;;;103.67;48.73;;;3.10;99.90;;;;;;5094021;27;20031;-77
2023/11/30 11:27:41;;;;;;;94.90;43.97;;;3.10;99.90;;;;;;5099276;27;20043;-80
2023/11/30 11:30:08;;;;;;;93.15;42.38;;;3.10;99.90;;;;;;5086377;27;20173;-79
2023/11/30 11:32:35;;;;;;;93.55;44.38;;;3.10;99.90;;;;;;5080611;28;20050;-79
2023/11/30 11:35:03;;;;;;;109.82;48.55;;;3.10;99.90;;;;;;5082057;27;20024;-75
2023/11/30 11:37:29;;;;;;;131.10;57.13;;;3.10;99.90;;;;;;5076616;27;20422;-79
2023/11/30 11:39:56;;;;;;;107.43;50.90;;;3.10;99.90;;;;;;5078033;27;20035;-78
2023/11/30 11:42:23;;;;;;;98.68;47.63;;;3.00;99.90;;;;;;5086002;27;20040;-78
2023/11/30 11:44:52;;;;;;;116.13;51.50;;;3.00;99.90;;;;;;5058675;27;20434;-76
2023/11/30 11:47:21;;;;;;;102.05;47.70;;;3.00;99.90;;;;;;5077647;27;20494;-76
2023/11/30 11:49:47;;;;;;;109.97;49.03;;;3.00;99.90;;;;;;5087722;27;20524;-77
2023/11/30 11:52:20;;;;;;;104.22;50.75;;;3.00;99.90;;;;;;5104845;27;20031;-78
2023/11/30 11:54:57;;;;;;;99.80;47.40;;;3.00;99.90;;;;;;5091275;28;20035;-77
2023/11/30 11:57:34;;;;;;;102.82;48.30;;;3.00;99.90;;;;;;5088719;27;20386;-79
2023/11/30 12:00:00;;;;;;;92.70;44.55;;;3.00;99.90;;;;;;5088186;27;20098;-79
2023/11/30 12:02:26;;;;;;;97.22;45.33;;;3.00;99.90;;;;;;5088611;27;20028;-79
2023/11/30 12:04:53;;;;;;;101.35;47.00;;;3.00;99.90;;;;;;5105700;27;20039;-79
2023/11/30 12:07:19;;;;;;;107.40;48.90;;;3.00;99.90;;;;;;5084877;27;20054;-79
2023/11/30 12:09:56;;;;;;;98.97;45.03;;;3.10;99.90;;;;;;5084450;27;20036;-78
2023/11/30 12:12:33;;;;;;;97.25;44.58;;;3.10;99.90;;;;;;5101306;27;20323;-78
2023/11/30 12:14:59;;;;;;;104.45;46.33;;;3.10;99.90;;;;;;5082509;27;20035;-79
2023/11/30 12:17:26;;;;;;;107.10;44.35;;;3.10;99.90;;;;;;5099654;27;20031;-74
2023/11/30 12:19:52;;;;;;;113.05;45.85;;;3.10;99.90;;;;;;5080842;27;20027;-76
2023/11/30 12:22:18;;;;;;;112.07;47.20;;;3.10;99.90;;;;;;5110345;27;20040;-75
2023/11/30 12:24:45;;;;;;;110.47;48.73;;;3.20;99.90;;;;;;5063068;28;20031;-75
2023/11/30 12:27:11;;;;;;;111.38;48.10;;;3.20;99.90;;;;;;5095894;27;20074;-75
2023/11/30 12:29:38;;;;;;;118.63;51.70;;;3.20;99.90;;;;;;5067505;27;20701;-77
2023/11/30 12:32:04;;;;;;;117.63;50.40;;;3.20;99.90;;;;;;5069068;27;20032;-80
2023/11/30 12:34:31;;;;;;;112.43;49.00;;;3.20;99.90;;;;;;5069606;28;20051;-79
2023/11/30 12:36:57;;;;;;;106.22;44.28;;;3.20;99.90;;;;;;5075607;27;20039;-77